Hovedside
METAR-TAF:

METAR-TAF

Lufthavner :

Šiauliai, Litauen

breddegrad: 55-53-38N, lengdegrad: 023-23-42E, høyde over havet: 135 m

Gjeldene værobservasjon

Denne rapporten ble laget for 51 minutter siden, klokken 03:20 UTC
Vind 1 kt fra skiftende retning
Temperatur 15°C
Luftfuktighet 100%
Trykk 1013 hPa
Sikt: 6000 m
Grunne tåke,

METAR: EYSA 220320Z VRB01KT 6000 MIFG NSC 15/15 Q1013 NOSIG

Tid: 07:11 (04:11 UTC)

Varsel

Denne rapporten ble laget for 2 timer og 9 minutter siden, klokken 02:02 UTC
Varsel gyldig fra 22. klokken 03 UTC til 22. klokken 12 UTC
Vind 5 kt fra skiftende retning
Sikt: 5000 m
Grunne tåke, dis
Midlertidig
fra 22. klokken 03 UTC til 22. klokken 05 UTC
Sikt: 0600 m
i en høyde av 200 ft
tåke
Blir
fra 22. klokken 05 UTC til 22. klokken 07 UTC
Sikt: 9000 m
Spredte skyer i en høyde av 2000 ft

TAF: EYSA 220202Z 2203/2212 VRB05KT 5000 MIFG BR NSC TEMPO 2203/2205 0600 FG VV002 BECMG 2205/2207 9000 NSW SCT020

Værobservasjoner og værvarsel for over 4000 flyplasser (METAR- og TAF-rapporter).

Tilgjengelige stasjoner er representert av de røde og gule prikkene på kartet.

Hold musepekeren over prikken for å se navnet på stasjonen.

Klikk så for å se værobservasjoner og -varsler.

For å forandre kartet kan du klikke på den grønne knappen med svart kryss for å zoome inn, på den grønne knappen med strek for å zoome ut, eller på de grønne pilene for å se tilstøtende kart.


METAR-TAF: